createdAt,value
2017-07-29T00:00:31.493Z,99.99
2017-07-29T00:01:31.794Z,99.99
2017-07-29T00:02:31.784Z,99.99
2017-07-29T00:03:31.781Z,99.99
2017-07-29T00:04:31.775Z,99.33
2017-07-29T00:05:31.451Z,99.71
2017-07-29T00:06:31.443Z,99.99
2017-07-29T00:07:31.450Z,99.99
2017-07-29T00:08:31.435Z,99.99
2017-07-29T00:09:31.749Z,99.99
2017-07-29T00:10:31.746Z,99.99
2017-07-29T00:11:31.743Z,99.9
2017-07-29T00:12:31.735Z,98.75
2017-07-29T00:13:31.731Z,99.04
2017-07-29T00:14:31.728Z,97.8
2017-07-29T00:15:31.722Z,96.94
2017-07-29T00:16:31.395Z,96.66
2017-07-29T00:17:31.415Z,96.66
2017-07-29T00:18:31.706Z,96.94
2017-07-29T00:19:31.712Z,95.12
2017-07-29T00:20:31.695Z,95.51
2017-07-29T00:21:31.690Z,95.89
2017-07-29T00:22:31.390Z,95.98
2017-07-29T00:23:31.734Z,96.66
2017-07-29T00:24:31.676Z,97.33
2017-07-29T00:25:31.360Z,98.18
2017-07-29T00:26:31.693Z,96.75
2017-07-29T00:27:31.661Z,92.83
2017-07-29T00:28:31.657Z,93.12
2017-07-29T00:29:31.651Z,94.55
2017-07-29T00:30:31.657Z,95.79
2017-07-29T00:31:31.321Z,97.23
2017-07-29T00:32:31.655Z,96.27
2017-07-29T00:33:31.640Z,95.98
2017-07-29T00:34:31.312Z,96.94
2017-07-29T00:35:31.304Z,97.52
2017-07-29T00:36:31.627Z,96.66
2017-07-29T00:37:31.613Z,97.04
2017-07-29T00:38:31.605Z,97.61
2017-07-29T00:39:31.602Z,98.28
2017-07-29T00:40:31.596Z,97.52
2017-07-29T00:41:31.608Z,97.8
2017-07-29T00:42:31.584Z,98.09
2017-07-29T00:43:31.581Z,97.71
2017-07-29T00:44:31.577Z,98.28
2017-07-29T00:45:31.274Z,99.43
2017-07-29T00:46:31.261Z,99.9
2017-07-29T00:47:31.578Z,99.71
2017-07-29T00:48:31.556Z,99.52
2017-07-29T00:49:31.561Z,98.95
2017-07-29T00:50:31.563Z,98.09
2017-07-29T00:51:31.546Z,98.09
2017-07-29T00:52:31.536Z,99.62
2017-07-29T00:53:31.550Z,99.99
2017-07-29T00:54:31.208Z,99.9
2017-07-29T00:55:31.202Z,99.62
2017-07-29T00:56:31.197Z,99.24
2017-07-29T00:57:31.525Z,99.33
2017-07-29T00:58:31.509Z,99.62
2017-07-29T00:59:31.502Z,99.81
2017-07-29T01:00:31.499Z,99.99
2017-07-29T01:01:31.498Z,99.99
2017-07-29T01:02:31.506Z,99.99
2017-07-29T01:03:31.491Z,99.99
2017-07-29T01:04:31.159Z,99.99
2017-07-29T01:05:31.471Z,99.99
2017-07-29T01:06:31.147Z,99.99
2017-07-29T01:07:31.467Z,99.99
2017-07-29T01:08:31.156Z,99.99
2017-07-29T01:09:31.135Z,99.99
2017-07-29T01:10:31.129Z,99.99
2017-07-29T01:11:31.126Z,99.99
2017-07-29T01:12:31.122Z,99.99
2017-07-29T01:13:31.434Z,99.99
2017-07-29T01:14:31.124Z,99.99
2017-07-29T01:15:31.436Z,99.99
2017-07-29T01:16:31.420Z,99.99
2017-07-29T01:17:31.415Z,99.99
2017-07-29T01:18:31.410Z,99.99
2017-07-29T01:19:31.400Z,99.99
2017-07-29T01:20:31.399Z,99.99
2017-07-29T01:21:31.086Z,99.99
2017-07-29T01:22:31.387Z,99.99
2017-07-29T01:23:31.381Z,99.99
2017-07-29T01:24:31.388Z,99.99
2017-07-29T01:25:31.372Z,99.99
2017-07-29T01:26:31.372Z,99.99
2017-07-29T01:27:31.360Z,99.99
2017-07-29T01:28:31.375Z,99.99
2017-07-29T01:29:31.351Z,99.99
2017-07-29T01:30:31.346Z,99.99
2017-07-29T01:31:31.358Z,99.99
2017-07-29T01:32:31.364Z,99.99
2017-07-29T01:33:31.351Z,99.99
2017-07-29T01:34:31.327Z,99.99
2017-07-29T01:35:31.321Z,99.99
2017-07-29T01:36:31.319Z,99.99
2017-07-29T01:37:31.309Z,99.99
2017-07-29T01:38:31.308Z,99.99
2017-07-29T01:39:31.304Z,99.99
2017-07-29T01:40:31.296Z,99.99
2017-07-29T01:41:30.988Z,99.99
2017-07-29T01:42:30.985Z,99.99
2017-07-29T01:43:31.280Z,99.99
2017-07-29T01:44:31.279Z,99.99
2017-07-29T01:45:31.271Z,99.99
2017-07-29T01:46:31.282Z,99.99
2017-07-29T01:47:31.261Z,99.99
2017-07-29T01:48:31.260Z,99.99
2017-07-29T01:49:31.276Z,99.99
2017-07-29T01:50:31.258Z,99.99
2017-07-29T01:51:31.240Z,99.99
2017-07-29T01:52:30.916Z,99.99
2017-07-29T01:53:30.924Z,99.99
2017-07-29T01:54:31.229Z,99.99
2017-07-29T01:55:30.902Z,99.99
2017-07-29T01:56:30.899Z,99.99
2017-07-29T01:57:31.219Z,99.99
2017-07-29T01:58:31.207Z,99.99
2017-07-29T01:59:31.241Z,99.99
2017-07-29T02:00:31.196Z,99.99
2017-07-29T02:01:31.204Z,99.99
2017-07-29T02:02:31.184Z,99.99
2017-07-29T02:03:31.188Z,99.99
2017-07-29T02:04:31.177Z,99.99
2017-07-29T02:05:30.851Z,99.99
2017-07-29T02:06:31.165Z,99.99
2017-07-29T02:07:30.842Z,99.99
2017-07-29T02:08:31.179Z,99.99
2017-07-29T02:09:31.151Z,99.99
2017-07-29T02:10:31.152Z,99.99
2017-07-29T02:11:30.833Z,99.99
2017-07-29T02:12:30.816Z,99.99
2017-07-29T02:13:30.832Z,99.99
2017-07-29T02:14:31.127Z,99.99
2017-07-29T02:15:31.125Z,99.99
2017-07-29T02:16:31.131Z,99.99
2017-07-29T02:17:31.126Z,99.99
2017-07-29T02:18:30.788Z,99.99
2017-07-29T02:19:31.118Z,99.99
2017-07-29T02:20:31.100Z,99.99
2017-07-29T02:21:31.092Z,99.99
2017-07-29T02:22:30.767Z,99.99
2017-07-29T02:23:30.762Z,99.99
2017-07-29T02:24:31.103Z,99.99
2017-07-29T02:25:31.079Z,99.99
2017-07-29T02:26:31.075Z,99.99
2017-07-29T02:27:31.064Z,99.99
2017-07-29T02:28:31.060Z,99.99
2017-07-29T02:29:31.075Z,99.99
2017-07-29T02:30:31.048Z,99.99
2017-07-29T02:31:31.046Z,99.99
2017-07-29T02:32:31.037Z,99.99
2017-07-29T02:33:31.032Z,99.99
2017-07-29T02:34:31.057Z,99.99
2017-07-29T02:35:31.023Z,99.99
2017-07-29T02:36:30.703Z,99.99
2017-07-29T02:37:31.022Z,99.99
2017-07-29T02:38:33.240Z,99.99
2017-07-29T02:39:31.012Z,99.99
2017-07-29T02:40:30.679Z,99.99
2017-07-29T02:41:31.002Z,99.99
2017-07-29T02:42:30.988Z,99.99
2017-07-29T02:43:30.982Z,99.99
2017-07-29T02:44:30.978Z,99.99
2017-07-29T02:45:30.973Z,99.99
2017-07-29T02:46:30.966Z,99.99
2017-07-29T02:47:30.642Z,99.99
2017-07-29T02:48:30.976Z,99.99
2017-07-29T02:49:30.634Z,99.99
2017-07-29T02:50:30.948Z,99.99
2017-07-29T02:51:30.623Z,99.99
2017-07-29T02:52:30.968Z,99.99
2017-07-29T02:53:30.612Z,99.99
2017-07-29T02:54:30.946Z,99.52
2017-07-29T02:55:30.620Z,99.9
2017-07-29T02:56:30.920Z,99.99
2017-07-29T02:57:30.910Z,99.99
2017-07-29T02:58:30.910Z,99.99
2017-07-29T02:59:30.905Z,99.99
2017-07-29T03:00:30.906Z,99.99
2017-07-29T03:01:30.905Z,99.99
2017-07-29T03:02:30.888Z,99.99
2017-07-29T03:03:30.882Z,99.99
2017-07-29T03:04:30.879Z,99.99
2017-07-29T03:05:30.873Z,99.99
2017-07-29T03:06:30.880Z,99.99
2017-07-29T03:07:30.868Z,99.99
2017-07-29T03:08:30.538Z,99.99
2017-07-29T03:09:30.851Z,99.99
2017-07-29T03:10:30.847Z,99.99
2017-07-29T03:11:30.522Z,99.99
2017-07-29T03:12:30.843Z,99.99
2017-07-29T03:13:30.834Z,99.99
2017-07-29T03:14:30.831Z,99.99
2017-07-29T03:15:30.827Z,99.99
2017-07-29T03:16:30.820Z,99.99
2017-07-29T03:17:30.493Z,99.99
2017-07-29T03:18:30.808Z,99.99
2017-07-29T03:19:30.516Z,99.99
2017-07-29T03:20:30.796Z,99.99
2017-07-29T03:21:30.794Z,99.99
2017-07-29T03:22:30.787Z,99.99
2017-07-29T03:23:30.483Z,99.99
2017-07-29T03:24:30.457Z,99.99
2017-07-29T03:25:30.454Z,99.99
2017-07-29T03:26:30.455Z,99.99
2017-07-29T03:27:30.443Z,99.99
2017-07-29T03:28:30.782Z,99.99
2017-07-29T03:29:30.772Z,99.99
2017-07-29T03:30:30.428Z,99.99
2017-07-29T03:31:30.748Z,99.99
2017-07-29T03:32:30.740Z,99.99
2017-07-29T03:33:30.738Z,99.99
2017-07-29T03:34:30.742Z,99.99
2017-07-29T03:35:30.726Z,99.99
2017-07-29T03:36:30.734Z,99.99
2017-07-29T03:37:30.718Z,99.99
2017-07-29T03:38:30.717Z,99.99
2017-07-29T03:39:30.704Z,99.99
2017-07-29T03:40:30.700Z,99.99
2017-07-29T03:41:30.393Z,99.99
2017-07-29T03:42:30.388Z,99.99
2017-07-29T03:43:30.694Z,99.99
2017-07-29T03:44:30.683Z,99.99
2017-07-29T03:45:30.673Z,99.99
2017-07-29T03:46:30.671Z,99.99
2017-07-29T03:47:30.673Z,99.99
2017-07-29T03:48:30.660Z,99.99
2017-07-29T03:49:30.678Z,99.99
2017-07-29T03:50:30.649Z,99.99
2017-07-29T03:51:30.642Z,99.99
2017-07-29T03:52:30.639Z,99.99
2017-07-29T03:53:30.634Z,99.99
2017-07-29T03:54:30.629Z,99.99
2017-07-29T03:55:30.633Z,99.99
2017-07-29T03:56:30.619Z,99.99
2017-07-29T03:57:30.293Z,99.99
2017-07-29T03:58:30.292Z,99.99
2017-07-29T03:59:30.604Z,99.33
2017-07-29T04:00:30.599Z,99.38
2017-07-29T04:01:30.610Z,99.1
2017-07-29T04:02:30.271Z,98.43
2017-07-29T04:03:30.601Z,98.24
2017-07-29T04:04:30.600Z,99.76
2017-07-29T04:05:30.574Z,99.96
2017-07-29T04:06:30.570Z,99.99
2017-07-29T04:07:30.243Z,99.99
2017-07-29T04:08:30.562Z,99.99
2017-07-29T04:09:30.557Z,99.67
2017-07-29T04:10:30.551Z,98.43
2017-07-29T04:11:30.223Z,99.29
2017-07-29T04:12:30.540Z,99.76
2017-07-29T04:13:30.216Z,99.99
2017-07-29T04:14:30.537Z,98.33
2017-07-29T04:15:30.547Z,97.85
2017-07-29T04:16:30.519Z,96.42
2017-07-29T04:17:30.514Z,97.18
2017-07-29T04:18:30.509Z,99.1
2017-07-29T04:19:30.186Z,99.1
2017-07-29T04:20:30.501Z,99.1
2017-07-29T04:21:30.500Z,97.9
2017-07-29T04:22:30.493Z,97.37
2017-07-29T04:23:30.487Z,95.36
2017-07-29T04:24:30.163Z,95.36
2017-07-29T04:25:30.474Z,94.7
2017-07-29T04:26:30.470Z,95.07
2017-07-29T04:27:30.465Z,94.5
2017-07-29T04:28:30.463Z,93.93
2017-07-29T04:29:30.457Z,94.17
2017-07-29T04:30:30.454Z,91.87
2017-07-29T04:31:30.129Z,90.82
2017-07-29T04:32:30.445Z,91.2
2017-07-29T04:33:30.120Z,91.11
2017-07-29T04:34:30.435Z,92.06
2017-07-29T04:35:30.112Z,92.01
2017-07-29T04:36:30.426Z,91.77
2017-07-29T04:37:30.117Z,92.97
2017-07-29T04:38:30.418Z,92.58
2017-07-29T04:39:30.438Z,91.72
2017-07-29T04:40:30.087Z,91.92
2017-07-29T04:41:30.405Z,92.78
2017-07-29T04:42:30.401Z,91.92
2017-07-29T04:43:30.393Z,90.39
2017-07-29T04:44:30.070Z,89.43
2017-07-29T04:45:30.398Z,89.62
2017-07-29T04:46:30.389Z,90.77
2017-07-29T04:47:30.379Z,90.86
2017-07-29T04:48:30.381Z,90.58
2017-07-29T04:49:30.389Z,90.86
2017-07-29T04:50:30.395Z,91.05
2017-07-29T04:51:30.040Z,91.15
2017-07-29T04:52:30.354Z,92.78
2017-07-29T04:53:30.353Z,91.72
2017-07-29T04:54:30.353Z,92.4
2017-07-29T04:55:30.342Z,94.4
2017-07-29T04:56:30.040Z,94.69
2017-07-29T04:57:30.337Z,94.45
2017-07-29T04:58:30.332Z,96.13
2017-07-29T04:59:30.347Z,95.79
2017-07-29T05:00:30.327Z,95.98
2017-07-29T05:01:30.330Z,95.12
2017-07-29T05:02:30.317Z,95.17
2017-07-29T05:03:30.312Z,95.75
2017-07-29T05:04:30.330Z,96.22
2017-07-29T05:05:30.302Z,95.75
2017-07-29T05:06:30.298Z,96.32
2017-07-29T05:07:30.315Z,97.09
2017-07-29T05:08:30.295Z,95.27
2017-07-29T05:09:30.292Z,94.12
2017-07-29T05:10:30.287Z,94.21
2017-07-29T05:11:30.281Z,91.25
2017-07-29T05:12:29.953Z,90
2017-07-29T05:13:30.286Z,90.05
2017-07-29T05:14:30.287Z,90.33
2017-07-29T05:15:30.264Z,90.23
2017-07-29T05:16:30.262Z,89.18
2017-07-29T05:17:29.941Z,90.05
2017-07-29T05:18:30.250Z,91.1
2017-07-29T05:19:30.249Z,91.96
2017-07-29T05:20:30.243Z,92.63
2017-07-29T05:21:30.242Z,93.02
2017-07-29T05:22:30.237Z,92.68
2017-07-29T05:23:30.234Z,92.4
2017-07-29T05:24:30.230Z,91.82
2017-07-29T05:25:29.904Z,91.63
2017-07-29T05:26:30.222Z,90.23
2017-07-29T05:27:30.216Z,91.15
2017-07-29T05:28:29.909Z,91.53
2017-07-29T05:29:30.212Z,92.01
2017-07-29T05:30:29.884Z,92.01
2017-07-29T05:31:30.223Z,92.21
2017-07-29T05:32:30.199Z,91.72
2017-07-29T05:33:30.197Z,92.58
2017-07-29T05:34:30.189Z,92.3
2017-07-29T05:35:30.189Z,91.72
2017-07-29T05:36:29.861Z,92.49
2017-07-29T05:37:30.200Z,91.72
2017-07-29T05:38:30.176Z,90.77
2017-07-29T05:39:30.178Z,91.34
2017-07-29T05:40:30.168Z,91.92
2017-07-29T05:41:29.843Z,92.58
2017-07-29T05:42:30.159Z,92.4
2017-07-29T05:43:30.157Z,92.3
2017-07-29T05:44:30.167Z,93.07
2017-07-29T05:45:30.147Z,94.02
2017-07-29T05:46:30.158Z,95.12
2017-07-29T05:47:30.146Z,94.64
2017-07-29T05:48:30.139Z,94.98
2017-07-29T05:49:30.132Z,95.22
2017-07-29T05:50:29.812Z,94.55
2017-07-29T05:51:29.804Z,95.12
2017-07-29T05:52:30.148Z,94.31
2017-07-29T05:53:30.131Z,95.12
2017-07-29T05:54:30.114Z,95.98
2017-07-29T05:55:30.216Z,96.84
2017-07-29T05:56:30.111Z,95.31
2017-07-29T05:57:30.103Z,93.4
2017-07-29T05:58:30.096Z,94.26
2017-07-29T05:59:29.776Z,95.6
2017-07-29T06:00:30.091Z,95.98
2017-07-29T06:01:30.090Z,96.08
2017-07-29T06:02:30.084Z,95.89
2017-07-29T06:03:30.081Z,93.59
2017-07-29T06:04:30.084Z,93.49
2017-07-29T06:05:30.070Z,93.02
2017-07-29T06:06:30.074Z,92.63
2017-07-29T06:07:29.743Z,92.44
2017-07-29T06:08:30.061Z,92.15
2017-07-29T06:09:29.735Z,92.01
2017-07-29T06:10:30.071Z,93.44
2017-07-29T06:11:29.752Z,92.39
2017-07-29T06:12:30.046Z,92.58
2017-07-29T06:13:29.723Z,91.34
2017-07-29T06:14:29.718Z,89.71
2017-07-29T06:15:30.047Z,88.37
2017-07-29T06:16:30.063Z,86.93
2017-07-29T06:17:29.724Z,85.97
2017-07-29T06:18:29.706Z,84.44
2017-07-29T06:19:30.045Z,84.77
2017-07-29T06:20:30.060Z,85.01
2017-07-29T06:21:30.016Z,85.58
2017-07-29T06:22:30.009Z,85.44
2017-07-29T06:23:31.115Z,83.91
2017-07-29T06:24:29.686Z,84.19
2017-07-29T06:25:30.003Z,84.38
2017-07-29T06:26:29.679Z,84.58
2017-07-29T06:27:29.999Z,84.58
2017-07-29T06:28:29.993Z,83.81
2017-07-29T06:29:29.669Z,84.28
2017-07-29T06:30:29.988Z,83.81
2017-07-29T06:31:30.011Z,82.18
2017-07-29T06:32:29.979Z,82.18
2017-07-29T06:33:29.976Z,81.22
2017-07-29T06:34:29.980Z,81.98
2017-07-29T06:35:29.978Z,82.27
2017-07-29T06:36:29.968Z,82.08
2017-07-29T06:37:29.968Z,82.79
2017-07-29T06:38:29.967Z,81.07
2017-07-29T06:39:29.656Z,80.97
2017-07-29T06:40:29.956Z,79.44
2017-07-29T06:41:29.635Z,77.94
2017-07-29T06:42:29.952Z,78.99
2017-07-29T06:43:29.644Z,77.84
2017-07-29T06:44:29.962Z,77.26
2017-07-29T06:45:29.945Z,76.59
2017-07-29T06:46:29.943Z,75.92
2017-07-29T06:47:29.977Z,73.27
2017-07-29T06:48:29.939Z,72.89
2017-07-29T06:49:29.932Z,71.87
2017-07-29T06:50:29.928Z,70.07
2017-07-29T06:51:29.929Z,66.88
2017-07-29T06:52:29.926Z,64.53
2017-07-29T06:53:29.936Z,61.87
2017-07-29T06:54:29.923Z,60.93
2017-07-29T06:55:29.932Z,59.68
2017-07-29T06:56:29.602Z,57.49
2017-07-29T06:57:29.920Z,56.16
2017-07-29T06:58:29.921Z,54.87
2017-07-29T06:59:29.917Z,51.13
2017-07-29T07:00:29.928Z,49.92
2017-07-29T07:01:29.920Z,48.66
2017-07-29T07:02:29.603Z,48.97
2017-07-29T07:03:29.601Z,47.74
2017-07-29T07:04:29.946Z,45.73
2017-07-29T07:05:29.926Z,43.33
2017-07-29T07:06:29.924Z,43.43
2017-07-29T07:07:29.930Z,43.54
2017-07-29T07:08:29.606Z,43.47
2017-07-29T07:09:29.926Z,41.64
2017-07-29T07:10:29.929Z,41.77
2017-07-29T07:11:29.936Z,40.11
2017-07-29T07:12:29.617Z,39.92
2017-07-29T07:13:29.950Z,38.95
2017-07-29T07:14:29.943Z,40.62
2017-07-29T07:15:29.627Z,40.62
2017-07-29T07:16:29.950Z,39.65
2017-07-29T07:17:29.649Z,37.92
2017-07-29T07:18:29.957Z,37.54
2017-07-29T07:19:29.641Z,37.27
2017-07-29T07:20:29.966Z,36
2017-07-29T07:21:29.670Z,37.18
2017-07-29T07:22:29.650Z,36.98
2017-07-29T07:23:29.674Z,36.32
2017-07-29T07:24:30.009Z,37.79
2017-07-29T07:25:29.990Z,34.97
2017-07-29T07:26:29.673Z,35.75
2017-07-29T07:27:30.019Z,35.38
2017-07-29T07:28:30.002Z,33.72
2017-07-29T07:29:30.011Z,33.15
2017-07-29T07:30:30.023Z,33.73
2017-07-29T07:31:30.045Z,32.96
2017-07-29T07:32:30.025Z,34.32
2017-07-29T07:33:30.032Z,32.65
2017-07-29T07:34:30.046Z,33.23
2017-07-29T07:35:29.721Z,34.09
2017-07-29T07:36:30.048Z,34.97
2017-07-29T07:37:30.079Z,34.99
2017-07-29T07:38:30.061Z,33.53
2017-07-29T07:39:30.066Z,32.67
2017-07-29T07:40:30.077Z,32.18
2017-07-29T07:41:30.258Z,32.18
2017-07-29T07:42:30.086Z,34.12
2017-07-29T07:43:30.289Z,32.39
2017-07-29T07:44:29.794Z,32.58
2017-07-29T07:45:30.110Z,32.58
2017-07-29T07:46:30.113Z,31.51
2017-07-29T07:47:30.138Z,33.17
2017-07-29T07:48:29.825Z,32.48
2017-07-29T07:49:30.138Z,32.01
2017-07-29T07:50:30.142Z,30.94
2017-07-29T07:51:30.172Z,31.92
2017-07-29T07:52:29.858Z,33.48
2017-07-29T07:53:30.163Z,32.11
2017-07-29T07:54:30.179Z,31.72
2017-07-29T07:55:30.185Z,30.55
2017-07-29T07:56:30.203Z,30.84
2017-07-29T07:57:30.187Z,32.4
2017-07-29T07:58:30.196Z,31.82
2017-07-29T07:59:30.205Z,32.6
2017-07-29T08:00:29.896Z,31.93
2017-07-29T08:01:30.215Z,30.96
2017-07-29T08:02:30.221Z,31.56
2017-07-29T08:03:30.232Z,30.68
2017-07-29T08:04:30.232Z,32.4
2017-07-29T08:05:29.930Z,33.72
2017-07-29T08:06:30.244Z,35.53
2017-07-29T08:07:30.251Z,38.01
2017-07-29T08:08:30.256Z,39.14
2017-07-29T08:09:30.261Z,41.53
2017-07-29T08:10:30.308Z,41.8
2017-07-29T08:11:30.283Z,44.37
2017-07-29T08:12:29.956Z,45.98
2017-07-29T08:13:30.279Z,47.31
2017-07-29T08:14:30.285Z,49.99
2017-07-29T08:15:30.296Z,50.57
2017-07-29T08:16:30.301Z,51.54
2017-07-29T08:17:30.296Z,50.18
2017-07-29T08:18:30.302Z,48.54
2017-07-29T08:19:30.320Z,50.18
2017-07-29T08:20:29.991Z,48.74
2017-07-29T08:21:30.316Z,48.93
2017-07-29T08:22:29.995Z,49.12
2017-07-29T08:23:30.316Z,52.61
2017-07-29T08:24:30.319Z,53.45
2017-07-29T08:25:30.330Z,50.57
2017-07-29T08:26:30.029Z,50.07
2017-07-29T08:27:30.008Z,47.45
2017-07-29T08:28:30.331Z,49.07
2017-07-29T08:29:30.016Z,53.23
2017-07-29T08:30:30.220Z,51.95
2017-07-29T08:31:30.353Z,53.27
2017-07-29T08:32:30.020Z,52.89
2017-07-29T08:33:30.047Z,53.44
2017-07-29T08:34:30.354Z,53.44
2017-07-29T08:35:30.025Z,53.7
2017-07-29T08:36:30.351Z,55.24
2017-07-29T08:37:30.355Z,55.24
2017-07-29T08:38:30.353Z,54.74
2017-07-29T08:39:30.361Z,54.83
2017-07-29T08:40:30.041Z,55.79
2017-07-29T08:41:30.060Z,55.89
2017-07-29T08:42:30.040Z,56.09
2017-07-29T08:43:30.366Z,56.09
2017-07-29T08:44:30.371Z,58.01
2017-07-29T08:45:30.371Z,57.05
2017-07-29T08:46:30.046Z,58.14
2017-07-29T08:47:30.368Z,55.05
2017-07-29T08:48:30.374Z,54.57
2017-07-29T08:49:30.375Z,55.94
2017-07-29T08:50:30.391Z,54.88
2017-07-29T08:51:30.382Z,53.63
2017-07-29T08:52:30.376Z,54.38
2017-07-29T08:53:30.382Z,54.57
2017-07-29T08:54:30.382Z,55.44
2017-07-29T08:55:30.071Z,54.18
2017-07-29T08:56:30.388Z,55.63
2017-07-29T08:57:30.402Z,56.4
2017-07-29T08:58:30.064Z,56.79
2017-07-29T08:59:30.399Z,55.46
2017-07-29T09:00:30.387Z,56.84
2017-07-29T09:01:30.066Z,53.27
2017-07-29T09:02:30.395Z,51.05
2017-07-29T09:03:30.400Z,50.57
2017-07-29T09:04:30.070Z,51.61
2017-07-29T09:05:30.393Z,52.67
2017-07-29T09:06:30.387Z,52.35
2017-07-29T09:07:30.396Z,54.06
2017-07-29T09:08:30.077Z,53.67
2017-07-29T09:09:30.392Z,54.54
2017-07-29T09:10:30.080Z,55
2017-07-29T09:11:30.396Z,55.57
2017-07-29T09:12:30.078Z,56.15
2017-07-29T09:13:30.411Z,56.92
2017-07-29T09:14:30.396Z,57.21
2017-07-29T09:15:30.406Z,57.72
2017-07-29T09:16:30.405Z,59.65
2017-07-29T09:17:30.402Z,60.23
2017-07-29T09:18:30.409Z,59.87
2017-07-29T09:19:30.081Z,58.62
2017-07-29T09:20:30.081Z,57.39
2017-07-29T09:21:30.086Z,55.18
2017-07-29T09:22:30.415Z,54.69
2017-07-29T09:23:30.449Z,56.94
2017-07-29T09:24:30.409Z,58
2017-07-29T09:25:30.405Z,56.1
2017-07-29T09:26:30.420Z,53.88
2017-07-29T09:27:30.437Z,54.75
2017-07-29T09:28:30.409Z,53.52
2017-07-29T09:29:30.481Z,51.59
2017-07-29T09:30:30.418Z,52.23
2017-07-29T09:31:30.429Z,53.49
2017-07-29T09:32:30.419Z,53.69
2017-07-29T09:33:30.098Z,52.21
2017-07-29T09:34:30.424Z,53.27
2017-07-29T09:35:30.123Z,53.73
2017-07-29T09:36:30.426Z,54.28
2017-07-29T09:37:30.430Z,54.76
2017-07-29T09:38:30.437Z,56.09
2017-07-29T09:39:30.446Z,57.24
2017-07-29T09:40:30.458Z,58.59
2017-07-29T09:41:30.109Z,58.17
2017-07-29T09:42:30.428Z,60
2017-07-29T09:43:30.450Z,60.1
2017-07-29T09:44:30.431Z,60.58
2017-07-29T09:45:30.118Z,58.95
2017-07-29T09:46:30.110Z,60.68
2017-07-29T09:47:30.109Z,61.55
2017-07-29T09:48:30.436Z,61.16
2017-07-29T09:49:30.122Z,61.96
2017-07-29T09:50:30.439Z,60.23
2017-07-29T09:51:30.434Z,60.61
2017-07-29T09:52:30.440Z,60.64
2017-07-29T09:53:30.436Z,60.64
2017-07-29T09:54:30.437Z,60.74
2017-07-29T09:55:30.441Z,61.51
2017-07-29T09:56:30.439Z,60.16
2017-07-29T09:57:30.444Z,60.77
2017-07-29T09:58:30.125Z,59.13
2017-07-29T09:59:30.446Z,58.26
2017-07-29T10:00:30.123Z,57.04
2017-07-29T10:01:30.447Z,58.39
2017-07-29T10:02:30.448Z,57.23
2017-07-29T10:03:30.155Z,57.14
2017-07-29T10:04:30.463Z,58.39
2017-07-29T10:05:30.445Z,56.07
2017-07-29T10:06:30.455Z,57.23
2017-07-29T10:07:30.471Z,58.19
2017-07-29T10:08:30.131Z,58.26
2017-07-29T10:09:30.456Z,59.42
2017-07-29T10:10:30.455Z,60.1
2017-07-29T10:11:30.458Z,58.26
2017-07-29T10:12:30.464Z,58.55
2017-07-29T10:13:30.140Z,59.8
2017-07-29T10:14:30.140Z,58.94
2017-07-29T10:15:30.479Z,58.26
2017-07-29T10:16:30.477Z,58.65
2017-07-29T10:17:30.158Z,58.26
2017-07-29T10:18:30.462Z,58.17
2017-07-29T10:19:30.478Z,58.36
2017-07-29T10:20:30.147Z,57.49
2017-07-29T10:21:30.479Z,57.97
2017-07-29T10:22:30.475Z,58.55
2017-07-29T10:23:30.486Z,58.36
2017-07-29T10:24:30.486Z,60.03
2017-07-29T10:25:30.482Z,59.16
2017-07-29T10:26:37.298Z,58.87
2017-07-29T10:27:30.175Z,58.77
2017-07-29T10:28:30.483Z,59.93
2017-07-29T10:29:30.485Z,58.68
2017-07-29T10:30:30.477Z,59.45
2017-07-29T10:31:30.477Z,58.42
2017-07-29T10:32:30.492Z,58.42
2017-07-29T10:33:30.161Z,57.54
2017-07-29T10:34:30.482Z,58.22
2017-07-29T10:35:30.486Z,57.62
2017-07-29T10:36:30.489Z,57.14
2017-07-29T10:37:30.493Z,59.67
2017-07-29T10:38:30.512Z,59.19
2017-07-29T10:39:30.514Z,58.9
2017-07-29T10:40:30.490Z,58.9
2017-07-29T10:41:30.507Z,57.57
2017-07-29T10:42:30.177Z,56.99
2017-07-29T10:43:30.516Z,56.13
2017-07-29T10:44:30.507Z,57.03
2017-07-29T10:45:30.502Z,56.05
2017-07-29T10:46:30.501Z,54.71
2017-07-29T10:47:30.517Z,51.32
2017-07-29T10:48:30.549Z,54.41
2017-07-29T10:49:30.507Z,55.19
2017-07-29T10:50:30.519Z,53.93
2017-07-29T10:51:30.536Z,53.77
2017-07-29T10:52:30.540Z,54.05
2017-07-29T10:53:30.201Z,52.41
2017-07-29T10:54:30.525Z,51.95
2017-07-29T10:55:30.211Z,52.24
2017-07-29T10:56:30.525Z,50.89
2017-07-29T10:57:30.212Z,51.08
2017-07-29T10:58:30.534Z,51.18
2017-07-29T10:59:30.563Z,50.21
2017-07-29T11:00:30.216Z,49.99
2017-07-29T11:01:30.540Z,48.93
2017-07-29T11:02:30.539Z,49.97
2017-07-29T11:03:30.564Z,52.26
2017-07-29T11:04:30.543Z,51.68
2017-07-29T11:05:30.230Z,52.53
2017-07-29T11:06:30.547Z,53.3
2017-07-29T11:07:30.551Z,53.88
2017-07-29T11:08:30.238Z,54.91
2017-07-29T11:09:30.558Z,56.46
2017-07-29T11:10:30.242Z,55.42
2017-07-29T11:11:30.559Z,53.01
2017-07-29T11:12:30.581Z,53.81
2017-07-29T11:13:30.567Z,53.81
2017-07-29T11:14:30.576Z,53.61
2017-07-29T11:15:30.580Z,55.57
2017-07-29T11:16:30.570Z,53.45
2017-07-29T11:17:30.576Z,53.77
2017-07-29T11:18:30.580Z,55.31
2017-07-29T11:19:30.582Z,53.96
2017-07-29T11:20:30.599Z,53.47
2017-07-29T11:21:30.586Z,54.25
2017-07-29T11:22:30.272Z,52.02
2017-07-29T11:23:30.604Z,50.96
2017-07-29T11:24:30.270Z,53.38
2017-07-29T11:25:30.614Z,51.54
2017-07-29T11:26:30.596Z,53.38
2017-07-29T11:27:30.595Z,51.73
2017-07-29T11:28:30.598Z,53.77
2017-07-29T11:29:30.633Z,53.67
2017-07-29T11:30:30.610Z,54.73
2017-07-29T11:31:30.609Z,53.77
2017-07-29T11:32:30.609Z,54.73
2017-07-29T11:33:30.609Z,51.93
2017-07-29T11:34:30.618Z,52.51
2017-07-29T11:35:30.302Z,51.37
2017-07-29T11:36:30.615Z,51.47
2017-07-29T11:37:30.626Z,51.64
2017-07-29T11:38:30.625Z,52.02
2017-07-29T11:39:30.629Z,51.35
2017-07-29T11:40:30.630Z,52.31
2017-07-29T11:41:30.656Z,51.64
2017-07-29T11:42:30.634Z,51.06
2017-07-29T11:43:30.649Z,51.93
2017-07-29T11:44:30.653Z,53.19
2017-07-29T11:45:30.643Z,53.19
2017-07-29T11:46:30.692Z,53.67
2017-07-29T11:47:30.647Z,53.47
2017-07-29T11:48:30.643Z,52.41
2017-07-29T11:49:30.645Z,52.31
2017-07-29T11:50:30.670Z,53.67
2017-07-29T11:51:30.700Z,52.02
2017-07-29T11:52:30.335Z,53.09
2017-07-29T11:53:30.747Z,54.47
2017-07-29T11:54:30.338Z,52.24
2017-07-29T11:55:30.666Z,52.44
2017-07-29T11:56:30.344Z,51.37
2017-07-29T11:57:30.667Z,53.79
2017-07-29T11:58:30.346Z,52.34
2017-07-29T11:59:30.681Z,52.05
2017-07-29T12:00:30.680Z,51.44
2017-07-29T12:01:30.377Z,52.61
2017-07-29T12:02:30.678Z,53.96
2017-07-29T12:03:30.681Z,53.77
2017-07-29T12:04:30.688Z,53.96
2017-07-29T12:05:30.363Z,52.24
2017-07-29T12:06:30.685Z,53.59
2017-07-29T12:07:30.697Z,55.63
2017-07-29T12:08:30.701Z,53.63
2017-07-29T12:09:30.740Z,50.04
2017-07-29T12:10:30.703Z,50.43
2017-07-29T12:11:30.702Z,51.2
2017-07-29T12:12:30.707Z,51.68
2017-07-29T12:13:30.715Z,50.04
2017-07-29T12:14:30.712Z,50.43
2017-07-29T12:15:30.710Z,51.28
2017-07-29T12:16:30.717Z,52.34
2017-07-29T12:17:30.394Z,51.66
2017-07-29T12:18:30.718Z,51.56
2017-07-29T12:19:30.722Z,51.95
2017-07-29T12:20:30.730Z,51.37
2017-07-29T12:21:30.731Z,51.56
2017-07-29T12:22:30.749Z,52.05
2017-07-29T12:23:30.733Z,53.99
2017-07-29T12:24:30.742Z,54.57
2017-07-29T12:25:30.745Z,52.34
2017-07-29T12:26:30.425Z,51.66
2017-07-29T12:27:30.746Z,52.22
2017-07-29T12:28:30.746Z,52.31
2017-07-29T12:29:30.746Z,51.83
2017-07-29T12:30:30.752Z,52.51
2017-07-29T12:31:30.669Z,53.28
2017-07-29T12:32:30.757Z,54.73
2017-07-29T12:33:30.447Z,52.51
2017-07-29T12:34:30.456Z,52.51
2017-07-29T12:35:30.768Z,53.09
2017-07-29T12:36:30.453Z,53.86
2017-07-29T12:37:30.770Z,52.8
2017-07-29T12:38:30.451Z,53.86
2017-07-29T12:39:30.803Z,55.02
2017-07-29T12:40:30.799Z,53.86
2017-07-29T12:41:30.460Z,53.86
2017-07-29T12:42:30.462Z,52.51
2017-07-29T12:43:32.033Z,53.19
2017-07-29T12:44:30.470Z,53.57
2017-07-29T12:45:30.787Z,55.31
2017-07-29T12:46:30.798Z,53.96
2017-07-29T12:47:30.482Z,53.74
2017-07-29T12:48:30.799Z,53.83
2017-07-29T12:49:30.494Z,54.9
2017-07-29T12:50:30.816Z,54.73
2017-07-29T12:51:30.820Z,54.53
2017-07-29T12:52:30.804Z,53.86
2017-07-29T12:53:30.812Z,54.83
2017-07-29T12:54:30.812Z,55.7